Time;durP1;ratioP1;P1;durP2;ratioP2;P2;SDS_P1;SDS_P2;PMS_P1;PMS_P2;Temp;Humidity;BMP_temperature;BMP_pressure;BME280_temperature;BME280_humidity;BME280_pressure;Samples;Min_cycle;Max_cycle;Signal;HPM_P1;HPM_P2
2022/10/30 00:00:38;;;;;;;9.43;6.18;;;14.80;99.90;;;;;;5068823;28;20387;-77
2022/10/30 00:03:04;;;;;;;18.58;7.32;;;14.70;99.90;;;;;;5085307;28;20044;-76
2022/10/30 00:05:30;;;;;;;12.10;7.30;;;14.60;99.90;;;;;;5068810;28;20025;-77
2022/10/30 00:07:57;;;;;;;10.48;7.05;;;14.60;99.90;;;;;;5085308;28;20073;-77
2022/10/30 00:10:24;;;;;;;12.48;6.88;;;14.60;99.90;;;;;;5085529;28;20064;-77
2022/10/30 00:12:49;;;;;;;9.23;7.07;;;14.50;99.90;;;;;;5074714;28;20496;-77
2022/10/30 00:15:15;;;;;;;9.20;7.22;;;14.40;99.90;;;;;;5104957;28;20032;-76
2022/10/30 00:17:41;;;;;;;16.40;8.18;;;14.40;99.90;;;;;;5093513;28;20032;-77
2022/10/30 00:20:08;;;;;;;11.88;6.88;;;14.40;99.90;;;;;;5085932;28;20032;-76
2022/10/30 00:22:36;;;;;;;8.63;6.32;;;14.30;99.90;;;;;;5090233;28;20126;-77
2022/10/30 00:25:03;;;;;;;14.55;8.00;;;14.20;99.90;;;;;;5068324;28;20027;-77
2022/10/30 00:27:29;;;;;;;12.73;7.93;;;14.20;99.90;;;;;;5085206;28;20048;-77
2022/10/30 00:29:55;;;;;;;10.85;7.53;;;14.20;99.90;;;;;;5085063;28;20031;-77
2022/10/30 00:32:21;;;;;;;15.35;7.47;;;14.20;99.90;;;;;;5085148;28;20107;-76
2022/10/30 00:34:47;;;;;;;15.48;7.00;;;14.20;99.90;;;;;;5075968;28;20031;-77
2022/10/30 00:37:13;;;;;;;25.52;8.15;;;14.20;99.90;;;;;;5076123;28;20040;-77
2022/10/30 00:39:39;;;;;;;11.15;7.40;;;14.10;99.90;;;;;;5097289;28;20047;-77
2022/10/30 00:42:13;;;;;;;15.02;7.72;;;14.10;99.90;;;;;;5086149;28;20034;-76
2022/10/30 00:44:46;;;;;;;15.95;7.00;;;14.00;99.90;;;;;;5084860;28;20029;-77
2022/10/30 00:47:19;;;;;;;12.88;7.53;;;14.00;99.90;;;;;;5101744;28;20037;-77
2022/10/30 00:49:56;;;;;;;11.27;7.78;;;13.90;99.90;;;;;;5084836;28;20056;-77
2022/10/30 00:52:26;;;;;;;17.10;6.68;;;13.90;99.90;;;;;;5086124;28;20028;-77
2022/10/30 00:54:53;;;;;;;12.77;7.28;;;13.80;99.90;;;;;;5068104;28;20040;-77
2022/10/30 00:57:20;;;;;;;15.73;8.07;;;13.80;99.90;;;;;;5084669;28;20021;-76
2022/10/30 00:59:46;;;;;;;17.95;9.55;;;13.70;99.90;;;;;;5086098;28;20142;-77
2022/10/30 01:02:12;;;;;;;10.68;7.47;;;13.70;99.90;;;;;;5084940;28;20097;-77
2022/10/30 01:04:40;;;;;;;12.32;8.85;;;13.60;99.90;;;;;;5105236;28;20503;-77
2022/10/30 01:07:12;;;;;;;17.48;9.38;;;13.60;99.90;;;;;;5088154;28;20023;-76
2022/10/30 01:09:39;;;;;;;18.30;9.95;;;13.70;99.90;;;;;;5088166;28;20055;-77
2022/10/30 01:12:05;;;;;;;9.55;7.53;;;13.60;99.90;;;;;;5104698;28;20058;-77
2022/10/30 01:14:34;;;;;;;17.48;8.93;;;13.60;99.90;;;;;;5104687;28;20038;-79
2022/10/30 01:17:51;;;;;;;13.35;7.70;;;13.60;99.90;;;;;;5088006;28;20055;-76
2022/10/30 01:20:29;;;;;;;8.00;6.88;;;13.50;99.90;;;;;;5051230;28;20585;-78
2022/10/30 01:23:16;;;;;;;10.38;8.23;;;13.40;99.90;;;;;;5067634;28;20100;-79
2022/10/30 01:25:58;;;;;;;21.52;8.80;;;13.40;99.90;;;;;;5088484;28;20028;-78
2022/10/30 01:28:33;;;;;;;14.85;8.50;;;13.40;99.90;;;;;;5071679;28;20074;-78
2022/10/30 01:31:24;;;;;;;10.43;8.18;;;13.30;99.90;;;;;;5088487;28;20021;-78
2022/10/30 01:34:30;;;;;;;10.90;8.32;;;13.30;99.90;;;;;;5082930;28;20024;-78
2022/10/30 01:37:07;;;;;;;12.90;7.63;;;13.30;99.90;;;;;;5030826;28;20030;-79
2022/10/30 01:39:39;;;;;;;10.25;7.00;;;13.20;99.90;;;;;;5097768;28;20029;-78
2022/10/30 01:42:37;;;;;;;21.80;9.40;;;13.20;99.90;;;;;;5088125;28;20066;-79
2022/10/30 01:45:04;;;;;;;15.85;7.50;;;13.20;99.90;;;;;;5086781;28;20159;-78
2022/10/30 01:47:42;;;;;;;11.15;8.07;;;13.30;99.90;;;;;;5087982;28;20020;-79
2022/10/30 01:50:26;;;;;;;10.63;8.90;;;13.30;99.90;;;;;;5088207;28;20070;-78
2022/10/30 01:53:02;;;;;;;8.68;7.90;;;13.30;99.90;;;;;;5089488;28;20029;-78
2022/10/30 01:55:41;;;;;;;17.58;8.13;;;13.30;99.90;;;;;;5071131;28;20032;-79
2022/10/30 01:58:35;;;;;;;11.13;8.60;;;13.20;99.90;;;;;;5089181;28;20040;-79
2022/10/30 02:01:03;;;;;;;8.98;7.75;;;13.30;99.90;;;;;;5071280;28;20047;-78
2022/10/30 02:03:30;;;;;;;10.07;7.53;;;13.20;99.90;;;;;;5071054;28;20036;-78
2022/10/30 02:05:56;;;;;;;10.57;8.55;;;13.30;99.90;;;;;;5087687;28;20105;-78
2022/10/30 02:08:22;;;;;;;8.70;6.85;;;13.20;99.90;;;;;;5087431;28;20035;-78
2022/10/30 02:10:52;;;;;;;20.65;10.15;;;13.20;99.90;;;;;;5087739;28;20443;-77
2022/10/30 02:13:29;;;;;;;8.80;7.60;;;13.20;99.90;;;;;;5087424;28;20058;-78
2022/10/30 02:15:57;;;;;;;11.68;7.88;;;13.20;99.90;;;;;;5087420;28;20032;-78
2022/10/30 02:18:23;;;;;;;23.88;11.50;;;13.00;99.90;;;;;;5070999;28;20096;-79
2022/10/30 02:20:49;;;;;;;10.57;7.75;;;13.00;99.90;;;;;;5070685;28;20024;-78
2022/10/30 02:23:17;;;;;;;8.05;7.22;;;13.00;99.90;;;;;;5071208;28;20028;-78
2022/10/30 02:25:44;;;;;;;14.95;9.60;;;12.90;99.90;;;;;;5107515;28;20028;-78
2022/10/30 02:28:11;;;;;;;9.60;8.13;;;12.80;99.90;;;;;;5107539;28;20038;-78
2022/10/30 02:30:37;;;;;;;13.95;8.23;;;12.80;99.90;;;;;;5091461;28;20081;-78
2022/10/30 02:33:03;;;;;;;11.52;8.45;;;12.70;99.90;;;;;;5107725;28;20030;-78
2022/10/30 02:35:29;;;;;;;11.30;7.93;;;12.70;99.90;;;;;;5105366;28;20067;-78
2022/10/30 02:37:55;;;;;;;12.57;8.63;;;12.70;99.90;;;;;;5087065;28;20024;-76
2022/10/30 02:40:21;;;;;;;8.10;7.30;;;12.60;99.90;;;;;;5070450;28;20042;-76
2022/10/30 02:42:54;;;;;;;19.17;11.30;;;12.60;99.90;;;;;;5086830;28;20127;-78
2022/10/30 02:45:20;;;;;;;36.30;18.83;;;12.60;99.90;;;;;;5077783;28;20096;-78
2022/10/30 02:47:47;;;;;;;35.03;16.40;;;12.60;99.90;;;;;;5070223;28;20013;-78
2022/10/30 02:50:12;;;;;;;24.33;11.68;;;12.50;99.90;;;;;;5103606;28;20031;-78
2022/10/30 02:52:38;;;;;;;22.27;13.00;;;12.60;99.90;;;;;;5086759;28;20037;-79
2022/10/30 02:55:04;;;;;;;25.05;12.85;;;12.60;99.90;;;;;;5103817;28;20397;-78
2022/10/30 02:57:30;;;;;;;18.23;12.15;;;12.60;99.90;;;;;;5086676;28;20095;-77
2022/10/30 02:59:56;;;;;;;25.30;13.25;;;12.50;99.90;;;;;;5072637;28;20051;-78
2022/10/30 03:02:22;;;;;;;17.73;10.75;;;12.60;99.90;;;;;;5086636;28;20049;-79
2022/10/30 03:04:49;;;;;;;19.70;11.23;;;12.50;99.90;;;;;;5086472;28;20028;-78
2022/10/30 03:07:14;;;;;;;12.40;8.70;;;12.50;99.90;;;;;;5086629;28;20020;-77
2022/10/30 03:09:40;;;;;;;14.70;9.13;;;12.40;99.90;;;;;;5103629;28;20088;-78
2022/10/30 03:12:07;;;;;;;8.43;7.15;;;12.40;99.90;;;;;;5087718;28;20831;-77
2022/10/30 03:14:33;;;;;;;11.18;8.50;;;12.40;99.90;;;;;;5069737;28;20024;-77
2022/10/30 03:16:58;;;;;;;8.82;7.88;;;12.40;99.90;;;;;;5069733;28;20504;-77
2022/10/30 03:19:24;;;;;;;13.00;9.02;;;12.30;99.90;;;;;;5086339;28;20031;-77
2022/10/30 03:21:53;;;;;;;11.32;7.22;;;12.30;99.90;;;;;;5069875;28;20043;-78
2022/10/30 03:24:18;;;;;;;9.27;8.38;;;12.30;99.90;;;;;;5086296;28;20043;-77
2022/10/30 03:26:46;;;;;;;8.07;6.93;;;12.30;99.90;;;;;;5069532;28;20024;-77
2022/10/30 03:29:12;;;;;;;17.00;9.00;;;12.30;99.90;;;;;;5086386;28;20429;-77
2022/10/30 03:31:38;;;;;;;17.33;9.40;;;12.30;99.90;;;;;;5086425;28;20035;-77
2022/10/30 03:34:23;;;;;;;10.77;7.82;;;12.30;99.90;;;;;;5072274;28;20046;-77
2022/10/30 03:36:49;;;;;;;9.70;7.22;;;12.30;99.90;;;;;;5069258;28;20064;-77
2022/10/30 03:39:14;;;;;;;18.67;8.38;;;12.30;99.90;;;;;;5093163;28;20101;-77
2022/10/30 03:41:42;;;;;;;13.65;8.38;;;12.20;99.90;;;;;;5106264;28;20028;-77
2022/10/30 03:44:08;;;;;;;8.82;7.10;;;12.20;99.90;;;;;;5107364;28;20503;-77
2022/10/30 03:46:34;;;;;;;8.13;7.35;;;12.30;99.90;;;;;;5106816;28;20024;-77
2022/10/30 03:49:26;;;;;;;10.25;6.35;;;12.30;99.90;;;;;;5103355;28;20044;-77
2022/10/30 03:51:54;;;;;;;12.65;8.25;;;12.30;99.90;;;;;;5106200;28;20032;-77
2022/10/30 03:54:22;;;;;;;7.63;6.93;;;12.30;99.90;;;;;;5089143;28;20031;-77
2022/10/30 03:56:48;;;;;;;14.77;8.32;;;12.30;99.90;;;;;;5105757;28;20028;-77
2022/10/30 03:59:15;;;;;;;10.25;7.57;;;12.30;99.90;;;;;;5089266;28;20369;-77
2022/10/30 04:01:43;;;;;;;15.68;7.07;;;12.20;99.90;;;;;;5088962;28;20051;-77
2022/10/30 04:04:09;;;;;;;8.45;6.97;;;12.20;99.90;;;;;;5105556;28;20119;-78
2022/10/30 04:06:35;;;;;;;16.63;8.30;;;12.20;99.90;;;;;;5072225;28;20036;-77
2022/10/30 04:09:01;;;;;;;11.35;7.75;;;12.20;99.90;;;;;;5084928;28;20024;-78
2022/10/30 04:11:33;;;;;;;8.70;7.55;;;12.20;99.90;;;;;;5085240;28;20020;-78
2022/10/30 04:13:58;;;;;;;10.48;6.30;;;12.30;99.90;;;;;;5085333;28;20036;-77
2022/10/30 04:16:24;;;;;;;12.38;8.80;;;12.30;99.90;;;;;;5068550;28;20029;-77
2022/10/30 04:18:50;;;;;;;9.52;8.20;;;12.30;99.90;;;;;;5068421;28;20385;-77
2022/10/30 04:21:16;;;;;;;10.55;7.10;;;12.30;99.90;;;;;;5086457;28;20028;-78
2022/10/30 04:23:42;;;;;;;10.57;8.50;;;12.30;99.90;;;;;;5074316;28;20420;-78
2022/10/30 04:26:08;;;;;;;8.55;6.40;;;12.30;99.90;;;;;;5085000;28;20032;-78
2022/10/30 04:28:37;;;;;;;12.25;8.60;;;12.30;99.90;;;;;;5084979;28;20025;-78
2022/10/30 04:31:03;;;;;;;11.50;6.43;;;12.30;99.90;;;;;;5084817;28;20055;-78
2022/10/30 04:33:30;;;;;;;19.30;7.78;;;12.30;99.90;;;;;;5084874;28;20119;-78
2022/10/30 04:35:59;;;;;;;17.35;7.43;;;12.30;99.90;;;;;;5068636;28;20032;-78
2022/10/30 04:38:24;;;;;;;8.43;6.13;;;12.30;99.90;;;;;;5068239;28;20037;-78
2022/10/30 04:40:52;;;;;;;11.38;7.63;;;12.40;99.90;;;;;;5084689;28;20017;-78
2022/10/30 04:43:18;;;;;;;9.80;6.90;;;12.40;99.90;;;;;;5084916;28;20052;-78
2022/10/30 04:45:48;;;;;;;14.27;7.28;;;12.50;99.90;;;;;;5068714;28;20032;-78
2022/10/30 04:48:16;;;;;;;10.30;7.95;;;12.50;99.90;;;;;;5084778;28;20021;-77
2022/10/30 04:50:43;;;;;;;24.58;10.23;;;12.50;99.90;;;;;;5084843;28;20050;-79
2022/10/30 04:53:14;;;;;;;13.77;9.45;;;12.40;99.90;;;;;;5084945;28;20020;-77
2022/10/30 04:55:41;;;;;;;16.85;8.98;;;12.40;99.90;;;;;;5077412;28;20051;-78
2022/10/30 04:58:10;;;;;;;14.73;9.65;;;12.40;99.90;;;;;;5084456;28;20366;-78
2022/10/30 05:00:38;;;;;;;17.73;9.55;;;12.30;99.90;;;;;;5068269;28;20048;-78
2022/10/30 05:03:21;;;;;;;13.50;9.00;;;12.30;99.90;;;;;;5084229;28;20040;-78
2022/10/30 05:05:56;;;;;;;11.07;7.47;;;12.30;99.90;;;;;;5084427;28;20029;-78
2022/10/30 05:08:22;;;;;;;11.25;7.88;;;12.30;99.90;;;;;;5092521;28;20052;-78
2022/10/30 05:10:48;;;;;;;9.05;6.32;;;12.30;99.90;;;;;;5085615;28;20032;-78
2022/10/30 05:13:14;;;;;;;9.98;6.38;;;12.40;99.90;;;;;;5083919;28;20055;-78
2022/10/30 05:15:41;;;;;;;13.80;7.40;;;12.40;99.90;;;;;;5077598;28;20024;-78
2022/10/30 05:18:07;;;;;;;11.73;7.43;;;12.40;99.90;;;;;;5070351;28;20031;-78
2022/10/30 05:20:33;;;;;;;8.75;7.05;;;12.30;99.90;;;;;;5086427;28;20033;-79
2022/10/30 05:23:00;;;;;;;16.55;6.32;;;12.30;99.90;;;;;;5067284;28;20028;-78
2022/10/30 05:25:26;;;;;;;6.78;6.13;;;12.30;99.90;;;;;;5067667;28;20028;-78
2022/10/30 05:28:01;;;;;;;16.30;7.25;;;12.30;99.90;;;;;;5083959;28;20473;-78
2022/10/30 05:30:32;;;;;;;11.20;5.78;;;12.20;99.90;;;;;;5084067;28;20051;-76
2022/10/30 05:33:04;;;;;;;7.90;5.90;;;12.20;99.90;;;;;;5082916;28;20088;-79
2022/10/30 05:35:32;;;;;;;10.32;6.82;;;12.10;99.90;;;;;;5097645;28;20035;-78
2022/10/30 05:37:59;;;;;;;16.92;6.25;;;12.00;99.90;;;;;;5092814;28;20407;-79
2022/10/30 05:40:25;;;;;;;10.35;5.90;;;12.00;99.90;;;;;;5064771;28;20128;-79
2022/10/30 05:42:51;;;;;;;7.78;6.57;;;11.90;99.90;;;;;;5070325;28;20396;-78
2022/10/30 05:45:18;;;;;;;17.92;7.13;;;11.90;99.90;;;;;;5088167;28;20076;-78
2022/10/30 05:47:53;;;;;;;7.68;5.80;;;11.80;99.90;;;;;;5084004;28;20055;-78
2022/10/30 05:50:21;;;;;;;12.20;6.78;;;11.80;99.90;;;;;;5088500;28;20021;-78
2022/10/30 05:53:04;;;;;;;10.73;6.07;;;11.70;99.90;;;;;;5084172;28;20031;-78
2022/10/30 05:55:30;;;;;;;14.15;6.75;;;11.70;99.90;;;;;;5088933;28;20461;-78
2022/10/30 05:58:06;;;;;;;12.07;6.90;;;11.60;99.90;;;;;;5089200;28;20096;-78
2022/10/30 06:00:34;;;;;;;11.57;6.63;;;11.70;99.90;;;;;;5084730;28;20021;-78
2022/10/30 06:03:04;;;;;;;9.48;7.88;;;11.70;99.90;;;;;;5076416;28;20070;-78
2022/10/30 06:05:33;;;;;;;13.30;6.47;;;11.70;99.90;;;;;;5067156;28;20021;-78
2022/10/30 06:08:01;;;;;;;14.02;6.50;;;11.50;99.90;;;;;;5083736;28;20016;-78
2022/10/30 06:10:27;;;;;;;6.85;6.15;;;11.40;99.90;;;;;;5083414;28;20019;-79
2022/10/30 06:13:12;;;;;;;7.43;5.47;;;11.40;99.90;;;;;;5078811;28;20025;-78
2022/10/30 06:15:59;;;;;;;11.10;7.45;;;11.30;99.90;;;;;;5099535;28;20032;-77
2022/10/30 06:18:37;;;;;;;8.30;5.40;;;11.20;99.90;;;;;;5080115;28;20036;-78
2022/10/30 06:21:08;;;;;;;15.60;6.35;;;11.20;99.90;;;;;;5075476;28;20039;-78
2022/10/30 06:24:07;;;;;;;6.53;5.82;;;11.20;99.90;;;;;;5042294;28;20052;-78
2022/10/30 06:27:05;;;;;;;10.30;7.13;;;11.20;99.90;;;;;;5062356;28;20381;-78
2022/10/30 06:29:31;;;;;;;10.60;6.10;;;11.10;99.90;;;;;;5094744;28;20050;-78
2022/10/30 06:31:57;;;;;;;7.35;5.68;;;11.10;99.90;;;;;;5075019;28;20036;-78
2022/10/30 06:34:23;;;;;;;8.68;6.00;;;11.20;99.90;;;;;;5084109;28;20050;-78
2022/10/30 06:36:51;;;;;;;13.90;6.40;;;11.10;99.90;;;;;;5087011;28;20047;-78
2022/10/30 06:39:16;;;;;;;11.98;7.93;;;11.10;99.90;;;;;;5086792;28;20037;-79
2022/10/30 06:42:16;;;;;;;10.13;5.60;;;11.20;99.90;;;;;;5084073;28;20036;-79
2022/10/30 06:45:07;;;;;;;6.78;5.68;;;11.20;99.90;;;;;;5086871;28;20025;-77
2022/10/30 06:47:34;;;;;;;9.80;7.50;;;11.10;99.90;;;;;;5057515;28;20088;-79
2022/10/30 06:50:01;;;;;;;11.00;7.00;;;11.20;99.90;;;;;;5082750;28;20119;-76
2022/10/30 06:52:28;;;;;;;12.50;6.10;;;11.30;99.90;;;;;;5083323;28;20028;-76
2022/10/30 06:54:54;;;;;;;12.02;6.47;;;11.30;99.90;;;;;;5088239;28;20092;-77
2022/10/30 06:57:51;;;;;;;12.38;8.00;;;11.40;99.90;;;;;;5065277;28;20102;-78
2022/10/30 07:00:36;;;;;;;;;;;11.50;99.90;;;;;;5099131;28;20095;-76
2022/10/30 07:03:21;;;;;;;6.65;5.57;;;11.60;99.90;;;;;;5084167;28;20010;-79
2022/10/30 07:05:47;;;;;;;8.60;6.28;;;11.60;99.90;;;;;;5086535;28;20016;-78
2022/10/30 07:08:13;;;;;;;10.80;7.60;;;11.60;99.90;;;;;;5083322;28;20084;-79
2022/10/30 07:10:39;;;;;;;14.73;7.35;;;11.80;99.90;;;;;;5088073;28;20024;-78
2022/10/30 07:13:25;;;;;;;12.90;7.50;;;11.80;99.90;;;;;;5098663;28;20032;-78
2022/10/30 07:15:55;;;;;;;13.13;8.02;;;12.00;99.90;;;;;;5106785;28;20050;-79
2022/10/30 07:18:23;;;;;;;9.65;7.68;;;12.20;99.90;;;;;;5083760;28;20035;-78
2022/10/30 07:20:55;;;;;;;8.20;6.43;;;12.40;99.90;;;;;;5076367;28;20037;-79
2022/10/30 07:23:21;;;;;;;11.25;7.70;;;12.60;99.90;;;;;;5080437;28;20114;-78
2022/10/30 07:25:48;;;;;;;11.35;8.10;;;12.80;99.90;;;;;;5099406;28;20012;-78
2022/10/30 07:28:22;;;;;;;12.77;10.02;;;13.10;99.90;;;;;;5074765;28;20515;-78
2022/10/30 07:31:08;;;;;;;10.77;7.45;;;13.30;99.90;;;;;;5065713;28;20041;-78
2022/10/30 07:33:49;;;;;;;7.60;6.25;;;14.20;99.90;;;;;;5083368;28;20424;-78
2022/10/30 07:36:25;;;;;;;9.55;6.88;;;15.30;99.90;;;;;;5088072;28;20036;-78
2022/10/30 07:39:01;;;;;;;12.90;5.78;;;16.00;99.90;;;;;;5088442;28;20107;-78
2022/10/30 07:41:34;;;;;;;12.93;7.43;;;17.30;99.90;;;;;;5055040;28;20033;-78
2022/10/30 07:44:21;;;;;;;12.55;8.30;;;18.60;99.90;;;;;;5065432;28;20093;-77
2022/10/30 07:46:55;;;;;;;7.43;5.32;;;20.00;99.90;;;;;;5101798;28;20040;-77
2022/10/30 07:49:32;;;;;;;7.00;5.07;;;21.00;99.90;;;;;;5078809;28;20024;-78
2022/10/30 07:52:05;;;;;;;9.32;5.97;;;21.70;99.90;;;;;;5081022;28;20028;-77
2022/10/30 07:54:31;;;;;;;13.60;5.95;;;21.90;99.90;;;;;;5097486;28;20021;-77
2022/10/30 07:57:06;;;;;;;6.32;5.00;;;23.10;99.90;;;;;;5085434;28;20043;-77
2022/10/30 07:59:50;;;;;;;12.60;5.80;;;24.50;99.90;;;;;;5088115;28;20123;-77
2022/10/30 08:02:38;;;;;;;8.00;5.47;;;25.30;99.90;;;;;;5086974;28;20074;-76
2022/10/30 08:05:27;;;;;;;7.47;4.82;;;25.80;99.90;;;;;;5091312;28;20032;-77
2022/10/30 08:08:10;;;;;;;6.65;4.70;;;25.90;99.90;;;;;;5087843;28;20052;-76
2022/10/30 08:10:37;;;;;;;5.18;4.20;;;25.90;99.90;;;;;;5082185;28;20020;-75
2022/10/30 08:13:03;;;;;;;20.15;5.85;;;25.80;99.90;;;;;;5084609;28;20052;-76
2022/10/30 08:15:29;;;;;;;13.75;5.10;;;26.80;99.90;;;;;;5085037;28;20028;-76
2022/10/30 08:17:54;;;;;;;7.20;5.72;;;27.10;99.90;;;;;;5081708;28;20024;-76
2022/10/30 08:20:22;;;;;;;7.97;5.18;;;26.20;99.90;;;;;;5053041;28;20366;-76
2022/10/30 08:22:54;;;;;;;9.48;4.97;;;24.90;99.90;;;;;;5098836;28;20057;-76
2022/10/30 08:25:28;;;;;;;6.78;4.20;;;25.10;99.90;;;;;;5093376;28;20416;-76
2022/10/30 08:28:03;;;;;;;12.65;4.55;;;25.80;99.90;;;;;;5088119;28;20057;-75
2022/10/30 08:30:36;;;;;;;6.72;5.40;;;26.40;99.90;;;;;;5095598;28;20024;-76
2022/10/30 08:33:06;;;;;;;11.35;5.53;;;25.90;99.90;;;;;;5092846;28;20062;-76
2022/10/30 08:35:58;;;;;;;9.18;4.82;;;26.80;99.90;;;;;;5085192;28;20100;-76
2022/10/30 08:38:25;;;;;;;15.20;9.32;;;26.60;99.90;;;;;;5085991;28;20032;-76
2022/10/30 08:41:17;;;;;;;12.52;5.88;;;26.90;99.90;;;;;;5084829;28;20031;-76
2022/10/30 08:43:47;;;;;;;7.82;5.65;;;25.60;99.90;;;;;;5068755;28;20025;-77
2022/10/30 08:46:12;;;;;;;8.45;5.18;;;24.90;99.90;;;;;;5084796;28;20020;-76
2022/10/30 08:48:40;;;;;;;11.05;5.22;;;24.20;99.90;;;;;;5080973;28;20032;-76
2022/10/30 08:51:06;;;;;;;10.15;5.38;;;25.60;99.90;;;;;;5103167;28;20028;-76
2022/10/30 08:53:35;;;;;;;15.05;4.78;;;26.50;99.90;;;;;;5105316;28;20046;-76
2022/10/30 08:56:06;;;;;;;6.80;4.80;;;25.90;99.90;;;;;;5088829;28;20020;-76
2022/10/30 08:58:50;;;;;;;15.27;4.78;;;26.80;99.90;;;;;;5090484;28;20505;-76
2022/10/30 09:01:16;;;;;;;7.80;5.55;;;27.40;99.90;;;;;;5087809;28;20099;-76
2022/10/30 09:04:02;;;;;;;10.85;5.57;;;27.20;99.90;;;;;;5056515;28;20052;-77
2022/10/30 09:06:46;;;;;;;10.82;5.53;;;26.10;99.90;;;;;;5086254;28;20055;-76
2022/10/30 09:09:30;;;;;;;11.48;6.05;;;25.90;99.90;;;;;;5085806;28;20047;-77
2022/10/30 09:11:59;;;;;;;15.93;5.35;;;25.90;99.90;;;;;;5068452;28;20025;-76
2022/10/30 09:14:26;;;;;;;7.45;4.65;;;26.60;99.90;;;;;;5067713;28;20024;-76
2022/10/30 09:16:53;;;;;;;8.30;4.43;;;28.20;99.90;;;;;;5069482;28;20042;-76
2022/10/30 09:19:20;;;;;;;10.77;4.53;;;29.50;99.60;;;;;;5101559;28;20047;-76
2022/10/30 09:21:48;;;;;;;8.60;4.63;;;30.30;99.00;;;;;;5084658;28;20047;-77
2022/10/30 09:24:14;;;;;;;14.52;5.65;;;29.50;98.80;;;;;;5084300;28;20024;-77
2022/10/30 09:27:06;;;;;;;8.25;5.43;;;28.30;99.60;;;;;;5085597;28;20473;-77
2022/10/30 09:29:43;;;;;;;13.48;5.03;;;27.50;99.90;;;;;;5101216;28;20057;-77
2022/10/30 09:32:24;;;;;;;10.32;5.85;;;27.80;99.90;;;;;;5086344;28;20095;-77
2022/10/30 09:34:59;;;;;;;9.93;4.97;;;28.10;99.90;;;;;;5068862;28;20039;-77
2022/10/30 09:37:28;;;;;;;4.83;4.33;;;28.30;99.60;;;;;;5068139;28;20033;-77
2022/10/30 09:39:58;;;;;;;8.23;4.93;;;28.10;99.60;;;;;;5084314;28;20036;-77
2022/10/30 09:42:40;;;;;;;10.20;4.60;;;28.10;99.70;;;;;;5067412;28;20043;-77
2022/10/30 09:45:42;;;;;;;7.63;4.15;;;29.00;99.50;;;;;;5087348;28;20025;-77
2022/10/30 09:48:14;;;;;;;6.68;4.85;;;30.70;98.50;;;;;;5087945;28;20457;-77
2022/10/30 09:51:15;;;;;;;10.50;5.32;;;29.80;98.60;;;;;;5073245;28;20040;-77
2022/10/30 09:54:04;;;;;;;11.35;4.65;;;29.70;98.50;;;;;;5071323;28;20029;-77
2022/10/30 09:56:53;;;;;;;7.80;4.15;;;28.10;99.90;;;;;;5071778;28;20028;-77
2022/10/30 09:59:43;;;;;;;9.75;4.63;;;27.80;99.80;;;;;;5089171;28;20036;-77
2022/10/30 10:02:27;;;;;;;6.22;4.72;;;27.50;99.90;;;;;;5105734;28;20054;-77
2022/10/30 10:05:02;;;;;;;6.72;3.83;;;26.40;99.90;;;;;;5108071;28;20030;-77
2022/10/30 10:08:02;;;;;;;6.80;5.43;;;28.10;99.90;;;;;;5108190;28;20024;-77
2022/10/30 10:11:17;;;;;;;10.38;5.32;;;29.40;99.10;;;;;;5071335;28;20032;-76
2022/10/30 10:13:50;;;;;;;7.18;4.45;;;30.40;98.60;;;;;;5088761;28;20033;-77
2022/10/30 10:16:19;;;;;;;5.07;4.53;;;30.80;97.60;;;;;;5088959;28;20078;-77
2022/10/30 10:19:19;;;;;;;11.93;4.75;;;29.20;98.10;;;;;;5088899;28;20032;-77
2022/10/30 10:22:13;;;;;;;5.97;3.30;;;31.30;99.50;;;;;;5087490;28;20032;-76
2022/10/30 10:24:43;;;;;;;6.45;3.70;;;31.60;97.40;;;;;;5087409;28;20033;-77
2022/10/30 10:27:58;;;;;;;7.32;4.53;;;31.40;97.30;;;;;;5071152;28;20063;-76
2022/10/30 10:30:47;;;;;;;5.95;4.75;;;31.10;97.60;;;;;;5087462;28;20025;-77
2022/10/30 10:33:46;;;;;;;11.75;4.68;;;28.50;98.50;;;;;;5087463;28;20051;-77
2022/10/30 10:36:16;;;;;;;;;;;26.90;99.90;;;;;;5089176;28;20043;-76
2022/10/30 10:38:54;;;;;;;9.60;4.38;;;27.30;99.90;;;;;;5091944;28;19947;-76
2022/10/30 10:41:25;;;;;;;9.85;5.43;;;27.50;99.90;;;;;;5106758;28;20024;-76
2022/10/30 10:44:03;;;;;;;10.30;4.90;;;28.70;99.90;;;;;;5087101;28;20028;-76
2022/10/30 10:46:55;;;;;;;6.15;3.70;;;29.50;99.50;;;;;;5086914;28;20040;-77
2022/10/30 10:49:21;;;;;;;12.15;5.18;;;29.30;98.80;;;;;;5088108;28;20028;-77
2022/10/30 10:51:54;;;;;;;8.43;5.13;;;29.10;99.20;;;;;;5088373;28;20020;-77
2022/10/30 10:54:31;;;;;;;13.75;5.45;;;29.60;99.20;;;;;;5070392;28;20037;-77
2022/10/30 10:56:58;;;;;;;8.93;4.25;;;29.10;99.10;;;;;;5087728;28;20028;-77
2022/10/30 10:59:35;;;;;;;13.25;4.88;;;28.70;99.90;;;;;;5086745;28;20058;-77
2022/10/30 11:02:25;;;;;;;14.18;4.95;;;28.50;99.20;;;;;;5086499;28;20070;-77
2022/10/30 11:04:54;;;;;;;15.88;3.80;;;28.10;99.50;;;;;;5101295;28;20033;-77
2022/10/30 11:07:23;;;;;;;8.93;3.88;;;27.80;99.60;;;;;;5079928;28;20024;-77
2022/10/30 11:09:53;;;;;;;12.18;5.13;;;28.60;99.90;;;;;;5085820;28;20020;-77
2022/10/30 11:12:37;;;;;;;16.70;3.95;;;28.80;99.90;;;;;;5069488;28;20032;-78
2022/10/30 11:15:27;;;;;;;4.25;3.00;;;29.00;99.30;;;;;;5069313;28;20100;-77
2022/10/30 11:18:00;;;;;;;9.55;3.80;;;29.00;99.90;;;;;;5098227;28;20052;-78
2022/10/30 11:20:36;;;;;;;7.88;3.03;;;28.90;99.90;;;;;;5088552;28;20054;-78
2022/10/30 11:23:02;;;;;;;7.95;4.03;;;28.70;99.90;;;;;;5085886;28;20028;-77
2022/10/30 11:25:38;;;;;;;8.93;3.42;;;28.40;99.70;;;;;;5093554;28;20130;-77
2022/10/30 11:28:04;;;;;;;15.25;4.07;;;28.20;99.50;;;;;;5088677;28;20031;-77
2022/10/30 11:30:30;;;;;;;8.15;4.70;;;26.80;99.90;;;;;;5087940;28;20037;-78
2022/10/30 11:32:58;;;;;;;9.48;4.35;;;27.10;99.90;;;;;;5089675;28;20538;-77
2022/10/30 11:35:25;;;;;;;8.18;3.63;;;27.00;99.80;;;;;;5063876;28;20151;-77
2022/10/30 11:38:14;;;;;;;11.05;3.85;;;27.00;99.90;;;;;;5091450;28;21313;-78
2022/10/30 11:40:47;;;;;;;9.48;5.47;;;27.20;99.90;;;;;;5075918;28;20079;-77
2022/10/30 11:43:18;;;;;;;14.05;3.70;;;27.30;99.90;;;;;;5092505;28;20484;-77
2022/10/30 11:45:44;;;;;;;10.00;3.60;;;27.50;99.60;;;;;;5090744;28;20033;-77
2022/10/30 11:48:23;;;;;;;6.95;2.95;;;27.20;99.40;;;;;;5073940;28;20115;-78
2022/10/30 11:50:50;;;;;;;5.77;2.87;;;26.70;99.80;;;;;;5085366;28;20025;-77
2022/10/30 11:53:30;;;;;;;11.13;3.53;;;26.80;99.90;;;;;;5076032;28;20035;-77
2022/10/30 11:55:57;;;;;;;3.25;2.88;;;26.70;99.60;;;;;;5090632;28;20033;-77
2022/10/30 11:58:33;;;;;;;10.13;4.15;;;26.90;99.50;;;;;;5085158;28;20078;-77
2022/10/30 12:01:16;;;;;;;6.75;3.33;;;27.00;99.80;;;;;;5079711;28;20032;-77
2022/10/30 12:03:42;;;;;;;9.77;2.92;;;26.80;99.90;;;;;;5085226;28;20040;-77
2022/10/30 12:06:16;;;;;;;8.18;4.03;;;26.70;99.40;;;;;;5086615;28;20025;-78
2022/10/30 12:09:11;;;;;;;10.13;3.40;;;26.40;99.80;;;;;;5085784;28;20107;-78
2022/10/30 12:11:38;;;;;;;9.07;3.92;;;25.70;99.90;;;;;;5086148;28;20039;-77
2022/10/30 12:14:05;;;;;;;7.18;3.35;;;25.10;99.90;;;;;;5085191;28;20021;-77
2022/10/30 12:16:32;;;;;;;6.38;3.22;;;24.80;99.90;;;;;;5067133;28;20082;-77
2022/10/30 12:19:05;;;;;;;10.05;4.72;;;24.50;99.90;;;;;;5076084;28;20031;-76
2022/10/30 12:21:38;;;;;;;6.13;2.47;;;24.40;99.90;;;;;;5088623;28;20034;-76
2022/10/30 12:24:13;;;;;;;8.50;3.38;;;24.50;99.90;;;;;;5089601;28;20112;-77
2022/10/30 12:26:39;;;;;;;5.38;3.00;;;24.50;99.90;;;;;;5092649;28;20061;-76
2022/10/30 12:29:13;;;;;;;6.97;3.05;;;24.50;99.90;;;;;;5085048;28;20024;-76
2022/10/30 12:31:59;;;;;;;7.85;3.03;;;24.60;99.90;;;;;;5102073;28;20055;-76
2022/10/30 12:34:48;;;;;;;6.00;4.68;;;24.50;99.90;;;;;;5086183;28;20040;-76
2022/10/30 12:37:22;;;;;;;14.95;5.07;;;24.10;99.90;;;;;;5081361;28;20388;-76
2022/10/30 12:40:11;;;;;;;6.47;3.53;;;23.90;99.90;;;;;;5084766;28;20020;-76
2022/10/30 12:42:43;;;;;;;6.60;3.78;;;24.10;99.90;;;;;;5084506;28;20042;-76
2022/10/30 12:45:26;;;;;;;6.82;3.42;;;24.00;99.90;;;;;;5084936;28;20378;-75
2022/10/30 12:48:01;;;;;;;8.68;4.07;;;24.20;99.90;;;;;;5085820;28;20028;-76
2022/10/30 12:50:42;;;;;;;10.68;4.57;;;24.30;99.90;;;;;;5086623;28;20051;-76
2022/10/30 12:53:26;;;;;;;11.95;4.22;;;24.50;99.90;;;;;;5090637;28;20062;-75
2022/10/30 12:56:05;;;;;;;7.25;3.45;;;24.20;99.90;;;;;;5080408;28;20027;-76
2022/10/30 12:58:42;;;;;;;6.35;3.45;;;24.20;99.90;;;;;;5098763;28;20029;-76
2022/10/30 13:01:27;;;;;;;5.95;2.97;;;24.60;99.90;;;;;;5067985;28;20043;-76
2022/10/30 13:04:19;;;;;;;10.35;3.72;;;24.70;99.90;;;;;;5072753;28;20143;-76
2022/10/30 13:07:17;;;;;;;6.90;3.80;;;24.50;99.90;;;;;;5091285;28;20481;-76
2022/10/30 13:10:15;;;;;;;6.85;4.55;;;24.60;99.90;;;;;;5084466;28;20036;-76
2022/10/30 13:12:44;;;;;;;12.02;4.15;;;24.80;99.90;;;;;;5079098;28;20477;-76